CPA617 VHHH-VTBS
Flight info
| Callsign | CPA617 |
|---|---|
| Flight time | 2h 16m |
| Altitude | 38100 |
| Route | PECAN V10 SIKOU/K0915S1160 A202 ASSAD/K0911F381 A202 VILAO/N0493F381 A202 RAMEI W42 PAKRI Y13 RUKSA EASTE1C |
| Aircraft | A359/H-SDE2E3GHIJ3J4J5LM1ORWXY/LB1D1 |
Departure
| Time | 2026-05-07 23:57 |
|---|---|
| Airport | Hong Kong International Airport (VHHH) |
Arrival
| Time | 2026-05-08 02:13 |
|---|---|
| Airport | Suvarnabhumi Airport (VTBS) |
| Time | Latitude | Longitude | Altitude | Speed | Heading |
|---|---|---|---|---|---|
| 2026-05-07 23:25 | 22.31452 | 113.93003 | 40 ft | 0 kts | 160° |
| 2026-05-07 23:40 | 22.31453 | 113.93002 | 40 ft | 1 kts | 160° |
| 2026-05-07 23:41 | 22.31466 | 113.92998 | 40 ft | 2 kts | 160° |
| 2026-05-07 23:41 | 22.31480 | 113.92992 | 40 ft | 2 kts | 160° |
| 2026-05-07 23:41 | 22.31494 | 113.92986 | 40 ft | 2 kts | 160° |
| 2026-05-07 23:41 | 22.31509 | 113.92982 | 40 ft | 2 kts | 178° |
| 2026-05-07 23:42 | 22.31524 | 113.92983 | 40 ft | 2 kts | 195° |
| 2026-05-07 23:42 | 22.31538 | 113.92989 | 40 ft | 2 kts | 211° |
| 2026-05-07 23:42 | 22.31549 | 113.92999 | 40 ft | 2 kts | 227° |
| 2026-05-07 23:42 | 22.31558 | 113.93011 | 40 ft | 2 kts | 243° |
| 2026-05-07 23:43 | 22.31562 | 113.93019 | 40 ft | 1 kts | 252° |
| 2026-05-07 23:43 | 22.31562 | 113.93022 | 40 ft | 0 kts | 252° |
| 2026-05-07 23:45 | 22.31562 | 113.93021 | 40 ft | 0 kts | 252° |
| 2026-05-07 23:46 | 22.31553 | 113.92992 | 40 ft | 7 kts | 251° |
| 2026-05-07 23:46 | 22.31526 | 113.92911 | 40 ft | 14 kts | 250° |
| 2026-05-07 23:46 | 22.31489 | 113.92790 | 40 ft | 14 kts | 263° |
| 2026-05-07 23:46 | 22.31531 | 113.92674 | 40 ft | 18 kts | 296° |
| 2026-05-07 23:47 | 22.31592 | 113.92539 | 40 ft | 21 kts | 296° |
| 2026-05-07 23:47 | 22.31648 | 113.92405 | 40 ft | 12 kts | 277° |
| 2026-05-07 23:47 | 22.31631 | 113.92323 | 40 ft | 11 kts | 249° |
| 2026-05-07 23:47 | 22.31601 | 113.92235 | 40 ft | 13 kts | 251° |
| 2026-05-07 23:48 | 22.31566 | 113.92126 | 40 ft | 16 kts | 251° |
| 2026-05-07 23:48 | 22.31508 | 113.92067 | 40 ft | 12 kts | 168° |
| 2026-05-07 23:48 | 22.31438 | 113.92091 | 40 ft | 10 kts | 161° |
| 2026-05-07 23:48 | 22.31360 | 113.92120 | 40 ft | 10 kts | 160° |
| 2026-05-07 23:49 | 22.31282 | 113.92149 | 40 ft | 13 kts | 161° |
| 2026-05-07 23:49 | 22.31187 | 113.92184 | 40 ft | 14 kts | 160° |
| 2026-05-07 23:49 | 22.31084 | 113.92223 | 40 ft | 17 kts | 161° |
| 2026-05-07 23:49 | 22.30958 | 113.92269 | 40 ft | 20 kts | 161° |
| 2026-05-07 23:50 | 22.30813 | 113.92323 | 40 ft | 23 kts | 161° |
| 2026-05-07 23:50 | 22.30717 | 113.92324 | 40 ft | 7 kts | 243° |
| 2026-05-07 23:50 | 22.30710 | 113.92304 | 40 ft | 6 kts | 249° |
| 2026-05-07 23:50 | 22.30685 | 113.92231 | 40 ft | 14 kts | 250° |
| 2026-05-07 23:51 | 22.30645 | 113.92108 | 40 ft | 20 kts | 251° |
| 2026-05-07 23:51 | 22.30596 | 113.91956 | 40 ft | 22 kts | 251° |
| 2026-05-07 23:51 | 22.30546 | 113.91797 | 40 ft | 23 kts | 251° |
| 2026-05-07 23:51 | 22.30493 | 113.91629 | 40 ft | 24 kts | 251° |
| 2026-05-07 23:52 | 22.30441 | 113.91468 | 40 ft | 18 kts | 250° |
| 2026-05-07 23:52 | 22.30398 | 113.91339 | 40 ft | 18 kts | 250° |
| 2026-05-07 23:52 | 22.30352 | 113.91200 | 40 ft | 19 kts | 251° |
| 2026-05-07 23:52 | 22.30312 | 113.91074 | 40 ft | 16 kts | 251° |
| 2026-05-07 23:53 | 22.30272 | 113.90949 | 40 ft | 18 kts | 251° |
| 2026-05-07 23:53 | 22.30230 | 113.90820 | 40 ft | 18 kts | 250° |
| 2026-05-07 23:53 | 22.30187 | 113.90685 | 40 ft | 19 kts | 251° |
| 2026-05-07 23:53 | 22.30141 | 113.90546 | 40 ft | 20 kts | 251° |
| 2026-05-07 23:54 | 22.30093 | 113.90394 | 40 ft | 21 kts | 251° |
| 2026-05-07 23:54 | 22.30043 | 113.90238 | 40 ft | 22 kts | 251° |
| 2026-05-07 23:54 | 22.29989 | 113.90073 | 40 ft | 23 kts | 251° |
| 2026-05-07 23:54 | 22.29934 | 113.89902 | 40 ft | 23 kts | 251° |
| 2026-05-07 23:55 | 22.29880 | 113.89748 | 40 ft | 13 kts | 231° |
| 2026-05-07 23:55 | 22.29807 | 113.89741 | 40 ft | 9 kts | 161° |
| 2026-05-07 23:55 | 22.29744 | 113.89764 | 40 ft | 11 kts | 161° |
| 2026-05-07 23:55 | 22.29651 | 113.89803 | 40 ft | 15 kts | 144° |
| 2026-05-07 23:56 | 22.29636 | 113.89831 | 40 ft | 1 kts | 77° |
| 2026-05-07 23:56 | 22.29644 | 113.89866 | 40 ft | 12 kts | 77° |
| 2026-05-07 23:56 | 22.29751 | 113.90211 | 40 ft | 82 kts | 70° |
| 2026-05-07 23:56 | 22.30015 | 113.91015 | 41 ft | 142 kts | 71° |
| 2026-05-07 23:57 | 22.30393 | 113.92166 | 197 ft | 174 kts | 71° |
| 2026-05-07 23:57 | 22.30794 | 113.93402 | 832 ft | 175 kts | 70° |
| 2026-05-07 23:57 | 22.31187 | 113.94608 | 1546 ft | 171 kts | 70° |
| 2026-05-07 23:57 | 22.31570 | 113.95780 | 2095 ft | 169 kts | 70° |
| 2026-05-07 23:58 | 22.31959 | 113.96980 | 2562 ft | 170 kts | 70° |
| 2026-05-07 23:58 | 22.32347 | 113.98182 | 3032 ft | 172 kts | 70° |
| 2026-05-07 23:58 | 22.32750 | 113.99429 | 3397 ft | 181 kts | 70° |
| 2026-05-07 23:58 | 22.33177 | 114.00758 | 3699 ft | 196 kts | 70° |
| 2026-05-07 23:59 | 22.33641 | 114.02200 | 3992 ft | 212 kts | 71° |
| 2026-05-07 23:59 | 22.33890 | 114.03825 | 4381 ft | 227 kts | 93° |
| 2026-05-07 23:59 | 22.33565 | 114.05493 | 4999 ft | 231 kts | 113° |
| 2026-05-07 23:59 | 22.32709 | 114.06961 | 5656 ft | 234 kts | 134° |
| 2026-05-08 00:00 | 22.31427 | 114.08047 | 6236 ft | 240 kts | 153° |
| 2026-05-08 00:00 | 22.29830 | 114.08690 | 6686 ft | 253 kts | 171° |
| 2026-05-08 00:00 | 22.28047 | 114.08810 | 7232 ft | 262 kts | 181° |
| 2026-05-08 00:00 | 22.26164 | 114.08772 | 7663 ft | 277 kts | 182° |
| 2026-05-08 00:01 | 22.24187 | 114.08720 | 8210 ft | 288 kts | 182° |
| 2026-05-08 00:01 | 22.22184 | 114.08680 | 8894 ft | 292 kts | 182° |
| 2026-05-08 00:01 | 22.20139 | 114.08652 | 9583 ft | 295 kts | 182° |
| 2026-05-08 00:01 | 22.18073 | 114.08628 | 10267 ft | 299 kts | 182° |
| 2026-05-08 00:02 | 22.15942 | 114.08607 | 10681 ft | 313 kts | 181° |
| 2026-05-08 00:02 | 22.13711 | 114.08608 | 11001 ft | 329 kts | 181° |
| 2026-05-08 00:02 | 22.11376 | 114.08621 | 11300 ft | 345 kts | 181° |
| 2026-05-08 00:02 | 22.08897 | 114.08637 | 11597 ft | 360 kts | 181° |
| 2026-05-08 00:03 | 22.06348 | 114.08649 | 11870 ft | 375 kts | 181° |
| 2026-05-08 00:03 | 22.03681 | 114.08663 | 12155 ft | 389 kts | 181° |
| 2026-05-08 00:03 | 22.00941 | 114.08677 | 12635 ft | 396 kts | 181° |
| 2026-05-08 00:03 | 21.98204 | 114.08693 | 13210 ft | 399 kts | 181° |
| 2026-05-08 00:04 | 21.95392 | 114.08706 | 13795 ft | 402 kts | 181° |
| 2026-05-08 00:04 | 21.92613 | 114.08719 | 14337 ft | 405 kts | 181° |
| 2026-05-08 00:04 | 21.89753 | 114.08732 | 14876 ft | 408 kts | 181° |
| 2026-05-08 00:04 | 21.86901 | 114.08745 | 15395 ft | 411 kts | 181° |
| 2026-05-08 00:05 | 21.84034 | 114.08758 | 15893 ft | 414 kts | 181° |
| 2026-05-08 00:05 | 21.81135 | 114.08772 | 16367 ft | 418 kts | 181° |
| 2026-05-08 00:05 | 21.78210 | 114.08785 | 16848 ft | 421 kts | 181° |
| 2026-05-08 00:05 | 21.75279 | 114.08797 | 17297 ft | 425 kts | 181° |
| 2026-05-08 00:06 | 21.72284 | 114.08810 | 17746 ft | 428 kts | 181° |
| 2026-05-08 00:06 | 21.69301 | 114.08823 | 18188 ft | 431 kts | 181° |
| 2026-05-08 00:06 | 21.66283 | 114.08720 | 18603 ft | 434 kts | 185° |
| 2026-05-08 00:06 | 21.63286 | 114.08372 | 19011 ft | 436 kts | 190° |
| 2026-05-08 00:07 | 21.60294 | 114.07765 | 19421 ft | 438 kts | 194° |
| 2026-05-08 00:07 | 21.57296 | 114.07001 | 19817 ft | 442 kts | 195° |
| 2026-05-08 00:07 | 21.54291 | 114.06211 | 20193 ft | 445 kts | 195° |
| 2026-05-08 00:07 | 21.51278 | 114.05418 | 20556 ft | 448 kts | 195° |
| 2026-05-08 00:08 | 21.48227 | 114.04616 | 20914 ft | 452 kts | 196° |
| 2026-05-08 00:08 | 21.45237 | 114.03593 | 21269 ft | 454 kts | 202° |
| 2026-05-08 00:08 | 21.42341 | 114.02216 | 21649 ft | 455 kts | 208° |
| 2026-05-08 00:08 | 21.39608 | 114.00520 | 22003 ft | 457 kts | 214° |
| 2026-05-08 00:09 | 21.36910 | 113.98638 | 22343 ft | 460 kts | 215° |
| 2026-05-08 00:09 | 21.34272 | 113.96757 | 22665 ft | 463 kts | 215° |
| 2026-05-08 00:09 | 21.31580 | 113.94833 | 22997 ft | 466 kts | 215° |
| 2026-05-08 00:09 | 21.28877 | 113.92907 | 23336 ft | 468 kts | 215° |
| 2026-05-08 00:10 | 21.26150 | 113.90972 | 23673 ft | 470 kts | 215° |
| 2026-05-08 00:10 | 21.23399 | 113.89024 | 24005 ft | 473 kts | 214° |
| 2026-05-08 00:10 | 21.20668 | 113.87094 | 24326 ft | 475 kts | 215° |
| 2026-05-08 00:10 | 21.17870 | 113.85117 | 24670 ft | 477 kts | 215° |
| 2026-05-08 00:11 | 21.15110 | 113.83172 | 24987 ft | 479 kts | 215° |
| 2026-05-08 00:11 | 21.12357 | 113.81185 | 25266 ft | 481 kts | 219° |
| 2026-05-08 00:11 | 21.09897 | 113.78742 | 25558 ft | 480 kts | 230° |
| 2026-05-08 00:11 | 21.07970 | 113.75845 | 25887 ft | 479 kts | 242° |
| 2026-05-08 00:12 | 21.06609 | 113.72592 | 26177 ft | 479 kts | 251° |
| 2026-05-08 00:12 | 21.05512 | 113.69235 | 26482 ft | 480 kts | 252° |
| 2026-05-08 00:12 | 21.04444 | 113.65864 | 26722 ft | 483 kts | 252° |
| 2026-05-08 00:12 | 21.03363 | 113.62444 | 26973 ft | 485 kts | 252° |
| 2026-05-08 00:13 | 21.02275 | 113.59024 | 27222 ft | 487 kts | 252° |
| 2026-05-08 00:13 | 21.01187 | 113.55633 | 27461 ft | 489 kts | 252° |
| 2026-05-08 00:13 | 21.00081 | 113.52200 | 27687 ft | 491 kts | 252° |
| 2026-05-08 00:13 | 20.98956 | 113.48721 | 27900 ft | 493 kts | 252° |
| 2026-05-08 00:14 | 20.97838 | 113.45279 | 28113 ft | 495 kts | 252° |
| 2026-05-08 00:14 | 20.96705 | 113.41795 | 28343 ft | 496 kts | 252° |
| 2026-05-08 00:14 | 20.95565 | 113.38294 | 28644 ft | 496 kts | 252° |
| 2026-05-08 00:14 | 20.94435 | 113.34827 | 29031 ft | 495 kts | 252° |
| 2026-05-08 00:15 | 20.93306 | 113.31361 | 29422 ft | 493 kts | 252° |
| 2026-05-08 00:15 | 20.92192 | 113.27936 | 29818 ft | 492 kts | 252° |
| 2026-05-08 00:15 | 20.91066 | 113.24479 | 30222 ft | 491 kts | 252° |
| 2026-05-08 00:15 | 20.89949 | 113.21056 | 30615 ft | 489 kts | 252° |
| 2026-05-08 00:16 | 20.88819 | 113.17628 | 31021 ft | 488 kts | 252° |
| 2026-05-08 00:16 | 20.87694 | 113.14239 | 31401 ft | 487 kts | 252° |
| 2026-05-08 00:16 | 20.86567 | 113.10838 | 31767 ft | 486 kts | 253° |
| 2026-05-08 00:16 | 20.85447 | 113.07439 | 32108 ft | 485 kts | 253° |
| 2026-05-08 00:17 | 20.84323 | 113.04029 | 32458 ft | 485 kts | 253° |
| 2026-05-08 00:17 | 20.83210 | 113.00644 | 32806 ft | 484 kts | 253° |
| 2026-05-08 00:17 | 20.82097 | 112.97257 | 33170 ft | 484 kts | 253° |
| 2026-05-08 00:17 | 20.80982 | 112.93869 | 33585 ft | 482 kts | 253° |
| 2026-05-08 00:18 | 20.79881 | 112.90524 | 34029 ft | 480 kts | 253° |
| 2026-05-08 00:18 | 20.78780 | 112.87185 | 34433 ft | 478 kts | 253° |
| 2026-05-08 00:18 | 20.77681 | 112.83853 | 34813 ft | 476 kts | 253° |
| 2026-05-08 00:18 | 20.76575 | 112.80502 | 35219 ft | 474 kts | 253° |
| 2026-05-08 00:19 | 20.75489 | 112.77209 | 35591 ft | 472 kts | 253° |
| 2026-05-08 00:19 | 20.74404 | 112.73922 | 35896 ft | 472 kts | 254° |
| 2026-05-08 00:19 | 20.73313 | 112.70623 | 36172 ft | 471 kts | 254° |
| 2026-05-08 00:19 | 20.72216 | 112.67300 | 36431 ft | 471 kts | 254° |
| 2026-05-08 00:20 | 20.71137 | 112.64036 | 36635 ft | 472 kts | 253° |
| 2026-05-08 00:20 | 20.70035 | 112.60703 | 36812 ft | 473 kts | 253° |
| 2026-05-08 00:20 | 20.68951 | 112.57430 | 36983 ft | 474 kts | 253° |
| 2026-05-08 00:20 | 20.67843 | 112.54089 | 37149 ft | 475 kts | 254° |
| 2026-05-08 00:21 | 20.66753 | 112.50801 | 37305 ft | 475 kts | 253° |
| 2026-05-08 00:21 | 20.65651 | 112.47479 | 37462 ft | 476 kts | 253° |
| 2026-05-08 00:21 | 20.64537 | 112.44122 | 37625 ft | 477 kts | 253° |
| 2026-05-08 00:21 | 20.63441 | 112.40821 | 37755 ft | 478 kts | 253° |
| 2026-05-08 00:22 | 20.62329 | 112.37476 | 37866 ft | 479 kts | 253° |
| 2026-05-08 00:22 | 20.61204 | 112.34093 | 37996 ft | 479 kts | 253° |
| 2026-05-08 00:22 | 20.58994 | 112.27436 | 38026 ft | 481 kts | 253° |
| 2026-05-08 00:23 | 20.57434 | 112.20571 | 38031 ft | 476 kts | 266° |
| 2026-05-08 00:23 | 20.57418 | 112.13586 | 38034 ft | 471 kts | 279° |
| 2026-05-08 00:24 | 20.58906 | 112.06823 | 38035 ft | 467 kts | 292° |
| 2026-05-08 00:24 | 20.61570 | 112.00508 | 38027 ft | 468 kts | 297° |
| 2026-05-08 00:25 | 20.64411 | 111.94274 | 38024 ft | 467 kts | 297° |
| 2026-05-08 00:25 | 20.67232 | 111.88057 | 38018 ft | 468 kts | 297° |
| 2026-05-08 00:26 | 20.70059 | 111.81795 | 38018 ft | 467 kts | 297° |
| 2026-05-08 00:26 | 20.72855 | 111.75588 | 38015 ft | 466 kts | 297° |
| 2026-05-08 00:27 | 20.75655 | 111.69360 | 38021 ft | 467 kts | 297° |
| 2026-05-08 00:27 | 20.78456 | 111.63123 | 38024 ft | 467 kts | 296° |
| 2026-05-08 00:28 | 20.80866 | 111.56724 | 38025 ft | 467 kts | 287° |
| 2026-05-08 00:28 | 20.81913 | 111.49876 | 38023 ft | 471 kts | 275° |
| 2026-05-08 00:29 | 20.81495 | 111.42904 | 38016 ft | 475 kts | 262° |
| 2026-05-08 00:29 | 20.79670 | 111.36124 | 38024 ft | 478 kts | 253° |
| 2026-05-08 00:30 | 20.77415 | 111.29433 | 38021 ft | 479 kts | 252° |
| 2026-05-08 00:30 | 20.75158 | 111.22751 | 38019 ft | 479 kts | 252° |
| 2026-05-08 00:31 | 20.72906 | 111.16068 | 38020 ft | 479 kts | 252° |
| 2026-05-08 00:31 | 20.70669 | 111.09423 | 38016 ft | 479 kts | 252° |
| 2026-05-08 00:32 | 20.68403 | 111.02697 | 38016 ft | 480 kts | 252° |
| 2026-05-08 00:32 | 20.66145 | 110.96000 | 38018 ft | 481 kts | 252° |
| 2026-05-08 00:33 | 20.63887 | 110.89316 | 38021 ft | 480 kts | 252° |
| 2026-05-08 00:33 | 20.61638 | 110.82631 | 38013 ft | 479 kts | 253° |
| 2026-05-08 00:34 | 20.59390 | 110.75935 | 38022 ft | 479 kts | 253° |
| 2026-05-08 00:34 | 20.57155 | 110.69280 | 38026 ft | 479 kts | 253° |
| 2026-05-08 00:35 | 20.54898 | 110.62573 | 38024 ft | 480 kts | 253° |
| 2026-05-08 00:35 | 20.52469 | 110.55965 | 38023 ft | 482 kts | 248° |
| 2026-05-08 00:36 | 20.49409 | 110.49571 | 38025 ft | 484 kts | 243° |
| 2026-05-08 00:36 | 20.45776 | 110.43574 | 38026 ft | 486 kts | 237° |
| 2026-05-08 00:37 | 20.41576 | 110.37872 | 38026 ft | 488 kts | 234° |
| 2026-05-08 00:38 | 20.35171 | 110.29458 | 38030 ft | 488 kts | 234° |
| 2026-05-08 00:38 | 20.30894 | 110.23846 | 38027 ft | 488 kts | 233° |
| 2026-05-08 00:39 | 20.26658 | 110.18236 | 38026 ft | 488 kts | 234° |
| 2026-05-08 00:39 | 20.22420 | 110.12572 | 38023 ft | 489 kts | 234° |
| 2026-05-08 00:40 | 20.18180 | 110.06914 | 38019 ft | 490 kts | 234° |
| 2026-05-08 00:40 | 20.13921 | 110.01239 | 38020 ft | 489 kts | 234° |
| 2026-05-08 00:41 | 20.09675 | 109.95591 | 38020 ft | 489 kts | 234° |
| 2026-05-08 00:41 | 20.05453 | 109.89977 | 38017 ft | 489 kts | 234° |
| 2026-05-08 00:42 | 20.01197 | 109.84323 | 38019 ft | 490 kts | 234° |
| 2026-05-08 00:42 | 19.96915 | 109.78642 | 38027 ft | 490 kts | 234° |
| 2026-05-08 00:43 | 19.92685 | 109.73034 | 38033 ft | 491 kts | 234° |
| 2026-05-08 00:43 | 19.88404 | 109.67371 | 38037 ft | 491 kts | 234° |
| 2026-05-08 00:44 | 19.84100 | 109.61723 | 38036 ft | 492 kts | 234° |
| 2026-05-08 00:44 | 19.79805 | 109.56065 | 38037 ft | 491 kts | 234° |
| 2026-05-08 00:45 | 19.75536 | 109.50432 | 38039 ft | 491 kts | 234° |
| 2026-05-08 00:45 | 19.71263 | 109.44791 | 38040 ft | 491 kts | 234° |
| 2026-05-08 00:46 | 19.67000 | 109.39169 | 38035 ft | 491 kts | 234° |
| 2026-05-08 00:46 | 19.62702 | 109.33501 | 38038 ft | 492 kts | 234° |
| 2026-05-08 00:47 | 19.58431 | 109.27849 | 38038 ft | 492 kts | 234° |
| 2026-05-08 00:47 | 19.54125 | 109.22172 | 38030 ft | 493 kts | 234° |
| 2026-05-08 00:48 | 19.49820 | 109.16541 | 38034 ft | 493 kts | 234° |
| 2026-05-08 00:48 | 19.45498 | 109.10944 | 38031 ft | 492 kts | 234° |
| 2026-05-08 00:49 | 19.41164 | 109.05332 | 38034 ft | 492 kts | 234° |
| 2026-05-08 00:49 | 19.36842 | 108.99734 | 38033 ft | 493 kts | 234° |
| 2026-05-08 00:50 | 19.32498 | 108.94109 | 38027 ft | 493 kts | 234° |
| 2026-05-08 00:50 | 19.28162 | 108.88497 | 38023 ft | 493 kts | 234° |
| 2026-05-08 00:51 | 19.23817 | 108.82883 | 38027 ft | 493 kts | 234° |
| 2026-05-08 00:51 | 19.19468 | 108.77278 | 38021 ft | 493 kts | 234° |
| 2026-05-08 00:52 | 19.15120 | 108.71675 | 38017 ft | 493 kts | 234° |
| 2026-05-08 00:52 | 19.10774 | 108.66079 | 38018 ft | 494 kts | 234° |
| 2026-05-08 00:53 | 19.06433 | 108.60489 | 38015 ft | 494 kts | 233° |
| 2026-05-08 00:53 | 19.02073 | 108.54881 | 38015 ft | 494 kts | 233° |
| 2026-05-08 00:54 | 18.97710 | 108.49274 | 38017 ft | 494 kts | 233° |
| 2026-05-08 00:54 | 18.93352 | 108.43679 | 38021 ft | 494 kts | 234° |
| 2026-05-08 00:55 | 18.88990 | 108.38085 | 38020 ft | 495 kts | 233° |
| 2026-05-08 00:55 | 18.84579 | 108.32467 | 38020 ft | 495 kts | 233° |
| 2026-05-08 00:56 | 18.80230 | 108.26892 | 38019 ft | 495 kts | 233° |
| 2026-05-08 00:56 | 18.75854 | 108.21287 | 38019 ft | 495 kts | 233° |
| 2026-05-08 00:57 | 18.71465 | 108.15675 | 38016 ft | 495 kts | 233° |
| 2026-05-08 00:57 | 18.67105 | 108.10106 | 38012 ft | 495 kts | 233° |
| 2026-05-08 00:58 | 18.62709 | 108.04496 | 38010 ft | 495 kts | 233° |
| 2026-05-08 00:58 | 18.58319 | 107.98898 | 38013 ft | 495 kts | 233° |
| 2026-05-08 00:59 | 18.53933 | 107.93310 | 38016 ft | 495 kts | 233° |
| 2026-05-08 00:59 | 18.49565 | 107.87750 | 38014 ft | 495 kts | 233° |
| 2026-05-08 01:00 | 18.45176 | 107.82167 | 38016 ft | 496 kts | 233° |
| 2026-05-08 01:00 | 18.40774 | 107.76568 | 38016 ft | 497 kts | 233° |
| 2026-05-08 01:01 | 18.36385 | 107.70989 | 38014 ft | 497 kts | 234° |
| 2026-05-08 01:01 | 18.32313 | 107.65145 | 37926 ft | 494 kts | 240° |
| 2026-05-08 01:02 | 18.28627 | 107.59063 | 37919 ft | 494 kts | 240° |
| 2026-05-08 01:02 | 18.24959 | 107.52972 | 37917 ft | 494 kts | 240° |
| 2026-05-08 01:03 | 18.21274 | 107.46871 | 37916 ft | 494 kts | 240° |
| 2026-05-08 01:03 | 18.17597 | 107.40795 | 37917 ft | 495 kts | 240° |
| 2026-05-08 01:04 | 18.13891 | 107.34678 | 37917 ft | 496 kts | 240° |
| 2026-05-08 01:04 | 18.10204 | 107.28572 | 37915 ft | 496 kts | 240° |
| 2026-05-08 01:05 | 18.06482 | 107.22436 | 37916 ft | 496 kts | 240° |
| 2026-05-08 01:05 | 18.02779 | 107.16354 | 37916 ft | 495 kts | 240° |
| 2026-05-08 01:06 | 17.99074 | 107.10278 | 37915 ft | 495 kts | 240° |
| 2026-05-08 01:06 | 17.95352 | 107.04176 | 37916 ft | 495 kts | 240° |
| 2026-05-08 01:07 | 17.91630 | 106.98080 | 37913 ft | 496 kts | 240° |
| 2026-05-08 01:07 | 17.87904 | 106.92002 | 37913 ft | 497 kts | 240° |
| 2026-05-08 01:08 | 17.84173 | 106.85909 | 37912 ft | 497 kts | 240° |
| 2026-05-08 01:08 | 17.80453 | 106.79802 | 37910 ft | 497 kts | 240° |
| 2026-05-08 01:09 | 17.76753 | 106.73717 | 37912 ft | 497 kts | 240° |
| 2026-05-08 01:09 | 17.73023 | 106.67580 | 37909 ft | 497 kts | 240° |
| 2026-05-08 01:10 | 17.69329 | 106.61513 | 37910 ft | 497 kts | 240° |
| 2026-05-08 01:10 | 17.65588 | 106.55402 | 37909 ft | 498 kts | 240° |
| 2026-05-08 01:11 | 17.61828 | 106.49287 | 37910 ft | 498 kts | 240° |
| 2026-05-08 01:11 | 17.58084 | 106.43191 | 37911 ft | 498 kts | 240° |
| 2026-05-08 01:12 | 17.54341 | 106.37098 | 37915 ft | 498 kts | 240° |
| 2026-05-08 01:12 | 17.50629 | 106.31042 | 37927 ft | 498 kts | 239° |
| 2026-05-08 01:13 | 17.46897 | 106.24946 | 37946 ft | 498 kts | 239° |
| 2026-05-08 01:13 | 17.43138 | 106.18835 | 37972 ft | 498 kts | 239° |
| 2026-05-08 01:14 | 17.39396 | 106.12759 | 37974 ft | 498 kts | 239° |
| 2026-05-08 01:14 | 17.35645 | 106.06667 | 37977 ft | 498 kts | 239° |
| 2026-05-08 01:15 | 17.31946 | 106.00562 | 37962 ft | 498 kts | 240° |
| 2026-05-08 01:15 | 17.28230 | 105.94415 | 37941 ft | 498 kts | 240° |
| 2026-05-08 01:16 | 17.24539 | 105.88322 | 37927 ft | 497 kts | 239° |
| 2026-05-08 01:16 | 17.20833 | 105.82214 | 37921 ft | 497 kts | 239° |
| 2026-05-08 01:17 | 17.17144 | 105.76138 | 37922 ft | 497 kts | 239° |
| 2026-05-08 01:17 | 17.13456 | 105.70073 | 37919 ft | 497 kts | 239° |
| 2026-05-08 01:18 | 17.09737 | 105.63958 | 37916 ft | 497 kts | 239° |
| 2026-05-08 01:18 | 17.06033 | 105.57875 | 37915 ft | 497 kts | 239° |
| 2026-05-08 01:19 | 17.02342 | 105.51820 | 37920 ft | 496 kts | 239° |
| 2026-05-08 01:19 | 16.98641 | 105.45754 | 37916 ft | 495 kts | 239° |
| 2026-05-08 01:20 | 16.94946 | 105.39700 | 37918 ft | 495 kts | 239° |
| 2026-05-08 01:20 | 16.91262 | 105.33669 | 37915 ft | 495 kts | 239° |
| 2026-05-08 01:21 | 16.87554 | 105.27602 | 37912 ft | 495 kts | 239° |
| 2026-05-08 01:21 | 16.83840 | 105.21567 | 37913 ft | 495 kts | 239° |
| 2026-05-08 01:22 | 16.80133 | 105.15543 | 37910 ft | 496 kts | 239° |
| 2026-05-08 01:22 | 16.76417 | 105.09499 | 37908 ft | 495 kts | 239° |
| 2026-05-08 01:23 | 16.72704 | 105.03461 | 37904 ft | 495 kts | 239° |
| 2026-05-08 01:23 | 16.68976 | 104.97400 | 37904 ft | 495 kts | 239° |
| 2026-05-08 01:24 | 16.65257 | 104.91356 | 37907 ft | 495 kts | 239° |
| 2026-05-08 01:24 | 16.61558 | 104.85347 | 37906 ft | 495 kts | 239° |
| 2026-05-08 01:25 | 16.57792 | 104.79316 | 37903 ft | 496 kts | 237° |
| 2026-05-08 01:25 | 16.53572 | 104.73625 | 37904 ft | 497 kts | 230° |
| 2026-05-08 01:26 | 16.48985 | 104.68262 | 37907 ft | 498 kts | 230° |
| 2026-05-08 01:26 | 16.44354 | 104.62888 | 37908 ft | 497 kts | 229° |
| 2026-05-08 01:27 | 16.39744 | 104.57529 | 37908 ft | 497 kts | 230° |
| 2026-05-08 01:27 | 16.35133 | 104.52168 | 37904 ft | 497 kts | 230° |
| 2026-05-08 01:28 | 16.30554 | 104.46844 | 37903 ft | 498 kts | 230° |
| 2026-05-08 01:28 | 16.25898 | 104.41444 | 37900 ft | 499 kts | 229° |
| 2026-05-08 01:29 | 16.21253 | 104.36139 | 37899 ft | 500 kts | 229° |
| 2026-05-08 01:29 | 16.16569 | 104.30776 | 37898 ft | 499 kts | 229° |
| 2026-05-08 01:30 | 16.11900 | 104.25424 | 37895 ft | 499 kts | 229° |
| 2026-05-08 01:30 | 16.07237 | 104.20100 | 37894 ft | 500 kts | 229° |
| 2026-05-08 01:31 | 16.02601 | 104.14755 | 37894 ft | 500 kts | 230° |
| 2026-05-08 01:31 | 15.97966 | 104.09333 | 37890 ft | 501 kts | 230° |
| 2026-05-08 01:32 | 15.93341 | 104.03930 | 37888 ft | 501 kts | 229° |
| 2026-05-08 01:32 | 15.88714 | 103.98541 | 37882 ft | 501 kts | 229° |
| 2026-05-08 01:33 | 15.84060 | 103.93162 | 37887 ft | 500 kts | 229° |
| 2026-05-08 01:33 | 15.79422 | 103.87792 | 37893 ft | 501 kts | 229° |
| 2026-05-08 01:34 | 15.74773 | 103.82396 | 37887 ft | 501 kts | 229° |
| 2026-05-08 01:34 | 15.70146 | 103.77023 | 37897 ft | 500 kts | 229° |
| 2026-05-08 01:35 | 15.65513 | 103.71647 | 37901 ft | 500 kts | 229° |
| 2026-05-08 01:35 | 15.60889 | 103.66285 | 37896 ft | 499 kts | 229° |
| 2026-05-08 01:36 | 15.56262 | 103.60923 | 37894 ft | 500 kts | 229° |
| 2026-05-08 01:36 | 15.51626 | 103.55557 | 37894 ft | 499 kts | 229° |
| 2026-05-08 01:37 | 15.46994 | 103.50196 | 37902 ft | 499 kts | 229° |
| 2026-05-08 01:37 | 15.42349 | 103.44826 | 37899 ft | 499 kts | 229° |
| 2026-05-08 01:38 | 15.37730 | 103.39487 | 37905 ft | 499 kts | 229° |
| 2026-05-08 01:38 | 15.33110 | 103.34152 | 37902 ft | 499 kts | 229° |
| 2026-05-08 01:39 | 15.28481 | 103.28780 | 37908 ft | 500 kts | 229° |
| 2026-05-08 01:39 | 15.23850 | 103.23424 | 37905 ft | 500 kts | 229° |
| 2026-05-08 01:40 | 15.19196 | 103.18059 | 37911 ft | 500 kts | 229° |
| 2026-05-08 01:40 | 15.14564 | 103.12727 | 37909 ft | 499 kts | 228° |
| 2026-05-08 01:41 | 15.09899 | 103.07396 | 37909 ft | 499 kts | 226° |
| 2026-05-08 01:41 | 15.04863 | 103.02446 | 37904 ft | 499 kts | 220° |
| 2026-05-08 01:42 | 14.99354 | 102.98101 | 37906 ft | 499 kts | 214° |
| 2026-05-08 01:42 | 14.93600 | 102.94031 | 37901 ft | 500 kts | 218° |
| 2026-05-08 01:43 | 14.88621 | 102.89073 | 37901 ft | 500 kts | 231° |
| 2026-05-08 01:43 | 14.84828 | 102.83063 | 37906 ft | 500 kts | 245° |
| 2026-05-08 01:44 | 14.82370 | 102.76364 | 37836 ft | 500 kts | 253° |
| 2026-05-08 01:44 | 14.81331 | 102.72946 | 37516 ft | 498 kts | 253° |
| 2026-05-08 01:44 | 14.80321 | 102.69583 | 37217 ft | 494 kts | 253° |
| 2026-05-08 01:44 | 14.79302 | 102.66206 | 36920 ft | 491 kts | 253° |
| 2026-05-08 01:45 | 14.78274 | 102.62822 | 36579 ft | 491 kts | 253° |
| 2026-05-08 01:45 | 14.77244 | 102.59448 | 36139 ft | 492 kts | 253° |
| 2026-05-08 01:45 | 14.76226 | 102.56127 | 35514 ft | 494 kts | 253° |
| 2026-05-08 01:45 | 14.75176 | 102.52706 | 34776 ft | 495 kts | 253° |
| 2026-05-08 01:46 | 14.74139 | 102.49335 | 34045 ft | 495 kts | 253° |
| 2026-05-08 01:46 | 14.73114 | 102.46005 | 33318 ft | 495 kts | 253° |
| 2026-05-08 01:46 | 14.72064 | 102.42601 | 32531 ft | 496 kts | 253° |
| 2026-05-08 01:46 | 14.71017 | 102.39204 | 31827 ft | 497 kts | 253° |
| 2026-05-08 01:47 | 14.69971 | 102.35816 | 31143 ft | 498 kts | 253° |
| 2026-05-08 01:47 | 14.68927 | 102.32426 | 30467 ft | 498 kts | 252° |
| 2026-05-08 01:47 | 14.67876 | 102.29009 | 29793 ft | 498 kts | 252° |
| 2026-05-08 01:48 | 14.65794 | 102.22254 | 28374 ft | 499 kts | 252° |
| 2026-05-08 01:48 | 14.64745 | 102.18860 | 27686 ft | 500 kts | 252° |
| 2026-05-08 01:48 | 14.63681 | 102.15419 | 27222 ft | 498 kts | 252° |
| 2026-05-08 01:48 | 14.62634 | 102.12041 | 26736 ft | 495 kts | 252° |
| 2026-05-08 01:49 | 14.61589 | 102.08668 | 26183 ft | 491 kts | 252° |
| 2026-05-08 01:49 | 14.60562 | 102.05355 | 25671 ft | 487 kts | 252° |
| 2026-05-08 01:49 | 14.59534 | 102.02040 | 25197 ft | 481 kts | 252° |
| 2026-05-08 01:49 | 14.58521 | 101.98779 | 24732 ft | 476 kts | 252° |
| 2026-05-08 01:50 | 14.57524 | 101.95569 | 24258 ft | 472 kts | 252° |
| 2026-05-08 01:50 | 14.56485 | 101.92352 | 23786 ft | 467 kts | 250° |
| 2026-05-08 01:50 | 14.55325 | 101.89269 | 23341 ft | 463 kts | 247° |
| 2026-05-08 01:50 | 14.54107 | 101.86210 | 22876 ft | 458 kts | 247° |
| 2026-05-08 01:51 | 14.52889 | 101.83175 | 22407 ft | 454 kts | 246° |
| 2026-05-08 01:51 | 14.51694 | 101.80203 | 21957 ft | 450 kts | 246° |
| 2026-05-08 01:51 | 14.50495 | 101.77219 | 21501 ft | 447 kts | 246° |
| 2026-05-08 01:51 | 14.49319 | 101.74290 | 21039 ft | 443 kts | 246° |
| 2026-05-08 01:52 | 14.48144 | 101.71363 | 20579 ft | 440 kts | 246° |
| 2026-05-08 01:52 | 14.46981 | 101.68465 | 20117 ft | 437 kts | 246° |
| 2026-05-08 01:52 | 14.45834 | 101.65605 | 19649 ft | 434 kts | 246° |
| 2026-05-08 01:52 | 14.44676 | 101.62721 | 19183 ft | 431 kts | 246° |
| 2026-05-08 01:53 | 14.43539 | 101.59888 | 18715 ft | 429 kts | 246° |
| 2026-05-08 01:53 | 14.42399 | 101.57050 | 18255 ft | 426 kts | 246° |
| 2026-05-08 01:53 | 14.41272 | 101.54244 | 17793 ft | 423 kts | 246° |
| 2026-05-08 01:53 | 14.40150 | 101.51450 | 17340 ft | 421 kts | 246° |
| 2026-05-08 01:54 | 14.39039 | 101.48685 | 16884 ft | 418 kts | 246° |
| 2026-05-08 01:54 | 14.37937 | 101.45946 | 16425 ft | 416 kts | 246° |
| 2026-05-08 01:54 | 14.36838 | 101.43214 | 15991 ft | 412 kts | 246° |
| 2026-05-08 01:54 | 14.35741 | 101.40487 | 15831 ft | 407 kts | 246° |
| 2026-05-08 01:55 | 14.34675 | 101.37837 | 15596 ft | 400 kts | 246° |
| 2026-05-08 01:55 | 14.33616 | 101.35207 | 15486 ft | 387 kts | 246° |
| 2026-05-08 01:55 | 14.32605 | 101.32687 | 15385 ft | 374 kts | 246° |
| 2026-05-08 01:55 | 14.31604 | 101.30283 | 15196 ft | 368 kts | 241° |
| 2026-05-08 01:56 | 14.30178 | 101.28087 | 14809 ft | 363 kts | 227° |
| 2026-05-08 01:56 | 14.28380 | 101.26306 | 14461 ft | 358 kts | 219° |
| 2026-05-08 01:56 | 14.26458 | 101.24670 | 14090 ft | 357 kts | 218° |
| 2026-05-08 01:56 | 14.24548 | 101.23077 | 13744 ft | 355 kts | 218° |
| 2026-05-08 01:57 | 14.22626 | 101.21469 | 13387 ft | 353 kts | 218° |
| 2026-05-08 01:57 | 14.20716 | 101.19859 | 13035 ft | 352 kts | 218° |
| 2026-05-08 01:57 | 14.18832 | 101.18264 | 12693 ft | 350 kts | 218° |
| 2026-05-08 01:57 | 14.16973 | 101.16686 | 12344 ft | 348 kts | 218° |
| 2026-05-08 01:58 | 14.15107 | 101.15099 | 11994 ft | 347 kts | 218° |
| 2026-05-08 01:58 | 14.13223 | 101.13497 | 11654 ft | 346 kts | 218° |
| 2026-05-08 01:58 | 14.11378 | 101.11928 | 11440 ft | 342 kts | 218° |
| 2026-05-08 01:58 | 14.09541 | 101.10366 | 11377 ft | 344 kts | 218° |
| 2026-05-08 01:59 | 14.07699 | 101.08800 | 11316 ft | 343 kts | 218° |
| 2026-05-08 01:59 | 14.05735 | 101.07372 | 11077 ft | 340 kts | 205° |
| 2026-05-08 01:59 | 14.03566 | 101.06512 | 10844 ft | 331 kts | 194° |
| 2026-05-08 01:59 | 14.01345 | 101.05900 | 10576 ft | 325 kts | 192° |
| 2026-05-08 02:00 | 13.99179 | 101.05336 | 10332 ft | 318 kts | 192° |
| 2026-05-08 02:00 | 13.97045 | 101.04771 | 10061 ft | 314 kts | 192° |
| 2026-05-08 02:00 | 13.94931 | 101.04202 | 9791 ft | 309 kts | 193° |
| 2026-05-08 02:00 | 13.92885 | 101.03645 | 9525 ft | 305 kts | 193° |
| 2026-05-08 02:01 | 13.90826 | 101.03079 | 9254 ft | 301 kts | 192° |
| 2026-05-08 02:01 | 13.88822 | 101.02532 | 8991 ft | 297 kts | 193° |
| 2026-05-08 02:01 | 13.86817 | 101.01986 | 8729 ft | 293 kts | 193° |
| 2026-05-08 02:01 | 13.84864 | 101.01453 | 8431 ft | 291 kts | 193° |
| 2026-05-08 02:02 | 13.82943 | 101.00746 | 8078 ft | 293 kts | 212° |
| 2026-05-08 02:02 | 13.81583 | 100.99227 | 7795 ft | 293 kts | 243° |
| 2026-05-08 02:02 | 13.81142 | 100.97207 | 7539 ft | 289 kts | 273° |
| 2026-05-08 02:02 | 13.81536 | 100.95214 | 7303 ft | 284 kts | 287° |
| 2026-05-08 02:03 | 13.82096 | 100.93284 | 7089 ft | 279 kts | 287° |
| 2026-05-08 02:03 | 13.82642 | 100.91396 | 6988 ft | 270 kts | 290° |
| 2026-05-08 02:03 | 13.83596 | 100.89807 | 6874 ft | 255 kts | 324° |
| 2026-05-08 02:03 | 13.85179 | 100.89124 | 6676 ft | 247 kts | 0° |
| 2026-05-08 02:04 | 13.86844 | 100.89406 | 6462 ft | 241 kts | 19° |
| 2026-05-08 02:04 | 13.88458 | 100.89928 | 6217 ft | 245 kts | 18° |
| 2026-05-08 02:04 | 13.90098 | 100.90433 | 6000 ft | 245 kts | 18° |
| 2026-05-08 02:04 | 13.91733 | 100.90908 | 5771 ft | 244 kts | 17° |
| 2026-05-08 02:05 | 13.93380 | 100.91371 | 5547 ft | 242 kts | 17° |
| 2026-05-08 02:05 | 13.94999 | 100.91821 | 5324 ft | 242 kts | 17° |
| 2026-05-08 02:05 | 13.96631 | 100.92269 | 5095 ft | 241 kts | 16° |
| 2026-05-08 02:05 | 13.98306 | 100.92399 | 4809 ft | 243 kts | 345° |
| 2026-05-08 02:06 | 13.99727 | 100.91522 | 4568 ft | 243 kts | 310° |
| 2026-05-08 02:06 | 14.00456 | 100.89983 | 4346 ft | 241 kts | 283° |
| 2026-05-08 02:06 | 14.00809 | 100.88294 | 4126 ft | 242 kts | 282° |
| 2026-05-08 02:06 | 14.01107 | 100.86591 | 3875 ft | 243 kts | 270° |
| 2026-05-08 02:07 | 14.00606 | 100.84959 | 3674 ft | 239 kts | 232° |
| 2026-05-08 02:07 | 13.99310 | 100.83944 | 3381 ft | 239 kts | 198° |
| 2026-05-08 02:07 | 13.97713 | 100.83489 | 3179 ft | 237 kts | 193° |
| 2026-05-08 02:07 | 13.96085 | 100.83115 | 2936 ft | 239 kts | 192° |
| 2026-05-08 02:08 | 13.94448 | 100.82736 | 2751 ft | 238 kts | 193° |
| 2026-05-08 02:08 | 13.92846 | 100.82346 | 2559 ft | 235 kts | 193° |
| 2026-05-08 02:08 | 13.91259 | 100.81940 | 2383 ft | 231 kts | 194° |
| 2026-05-08 02:08 | 13.89711 | 100.81534 | 2202 ft | 226 kts | 194° |
| 2026-05-08 02:09 | 13.88208 | 100.81134 | 2088 ft | 220 kts | 194° |
| 2026-05-08 02:09 | 13.86757 | 100.80747 | 2031 ft | 211 kts | 194° |
| 2026-05-08 02:09 | 13.85356 | 100.80373 | 1989 ft | 201 kts | 194° |
| 2026-05-08 02:09 | 13.84035 | 100.80022 | 1977 ft | 188 kts | 194° |
| 2026-05-08 02:10 | 13.82822 | 100.79701 | 2007 ft | 173 kts | 194° |
| 2026-05-08 02:10 | 13.81663 | 100.79394 | 2003 ft | 171 kts | 194° |
| 2026-05-08 02:10 | 13.80491 | 100.79085 | 1998 ft | 171 kts | 194° |
| 2026-05-08 02:10 | 13.79339 | 100.78781 | 1951 ft | 172 kts | 194° |
| 2026-05-08 02:11 | 13.78185 | 100.78477 | 1748 ft | 170 kts | 194° |
| 2026-05-08 02:11 | 13.77029 | 100.78172 | 1538 ft | 170 kts | 194° |
| 2026-05-08 02:11 | 13.75889 | 100.77871 | 1326 ft | 169 kts | 194° |
| 2026-05-08 02:11 | 13.74769 | 100.77576 | 1105 ft | 159 kts | 193° |
| 2026-05-08 02:12 | 13.73726 | 100.77302 | 907 ft | 151 kts | 194° |
| 2026-05-08 02:12 | 13.72704 | 100.77033 | 725 ft | 151 kts | 194° |
| 2026-05-08 02:12 | 13.71676 | 100.76762 | 534 ft | 151 kts | 193° |
| 2026-05-08 02:12 | 13.70664 | 100.76497 | 339 ft | 150 kts | 194° |
| 2026-05-08 02:13 | 13.69635 | 100.76226 | 140 ft | 149 kts | 193° |
| 2026-05-08 02:13 | 13.68650 | 100.75966 | 20 ft | 139 kts | 192° |
| 2026-05-08 02:13 | 13.67881 | 100.75761 | 16 ft | 83 kts | 194° |
| 2026-05-08 02:13 | 13.67527 | 100.75669 | 16 ft | 22 kts | 193° |
| 2026-05-08 02:14 | 13.67419 | 100.75642 | 16 ft | 17 kts | 194° |
| 2026-05-08 02:14 | 13.67267 | 100.75588 | 16 ft | 27 kts | 205° |
| 2026-05-08 02:14 | 13.67118 | 100.75472 | 16 ft | 27 kts | 225° |
| 2026-05-08 02:14 | 13.67103 | 100.75382 | 16 ft | 12 kts | 325° |
| 2026-05-08 02:15 | 13.67165 | 100.75383 | 16 ft | 6 kts | 17° |
| 2026-05-08 02:15 | 13.67242 | 100.75404 | 16 ft | 16 kts | 14° |
| 2026-05-08 02:15 | 13.67380 | 100.75440 | 16 ft | 21 kts | 14° |
| 2026-05-08 02:15 | 13.67530 | 100.75480 | 16 ft | 23 kts | 14° |
| 2026-05-08 02:16 | 13.67690 | 100.75522 | 16 ft | 23 kts | 14° |
| 2026-05-08 02:16 | 13.67850 | 100.75565 | 16 ft | 23 kts | 14° |
| 2026-05-08 02:16 | 13.68013 | 100.75607 | 16 ft | 24 kts | 14° |
| 2026-05-08 02:16 | 13.68181 | 100.75651 | 17 ft | 25 kts | 14° |
| 2026-05-08 02:17 | 13.68345 | 100.75695 | 19 ft | 23 kts | 14° |
| 2026-05-08 02:17 | 13.68422 | 100.75703 | 19 ft | 7 kts | 341° |
| 2026-05-08 02:17 | 13.68453 | 100.75669 | 19 ft | 6 kts | 289° |
| 2026-05-08 02:17 | 13.68465 | 100.75619 | 19 ft | 9 kts | 283° |
| 2026-05-08 02:18 | 13.68485 | 100.75533 | 19 ft | 14 kts | 284° |
| 2026-05-08 02:18 | 13.68515 | 100.75415 | 19 ft | 19 kts | 285° |
| 2026-05-08 02:18 | 13.68550 | 100.75276 | 19 ft | 20 kts | 284° |
| 2026-05-08 02:18 | 13.68586 | 100.75133 | 19 ft | 21 kts | 284° |
| 2026-05-08 02:19 | 13.68624 | 100.74984 | 19 ft | 22 kts | 284° |
| 2026-05-08 02:19 | 13.68664 | 100.74825 | 19 ft | 23 kts | 284° |
| 2026-05-08 02:19 | 13.68701 | 100.74716 | 19 ft | 8 kts | 323° |
| 2026-05-08 02:19 | 13.68780 | 100.74718 | 19 ft | 9 kts | 12° |
| 2026-05-08 02:20 | 13.68807 | 100.74703 | 19 ft | 6 kts | 296° |
| 2026-05-08 02:20 | 13.68815 | 100.74670 | 19 ft | 4 kts | 284° |
| 2026-05-08 02:20 | 13.68820 | 100.74651 | 19 ft | 0 kts | 284° |